Terminal Aerodrome Forecast
Issued by NWS

Home | Current Version | Previous Version | Text Only | Print | Product List | Glossary On
Versions: 1 2 3 4 5 6 7 8 9 10 11 12
000
FTUS42 TJSJ 211720
TAFJBQ
TAF
TJBQ 211720Z 2118/2218 09018G28KT P6SM VCSH SCT025
     FM212200 11012KT P6SM FEW060
     FM221400 08015G25KT P6SM SCT030
      AMD NOT SKED 2202/2211=

USA.gov is the U.S. government's official web portal to all federal, state and local government web resources and services.